sensor_id;sensor_type;location;lat;lon;timestamp;P1;durP1;ratioP1;P2;durP2;ratioP2
29240;SDS011;16268;49.880;8.648;2022-11-23T00:02:05;10.57;;;2.45;;
29240;SDS011;16268;49.880;8.648;2022-11-23T00:04:31;10.48;;;2.00;;
29240;SDS011;16268;49.880;8.648;2022-11-23T00:06:56;8.40;;;2.28;;
29240;SDS011;16268;49.880;8.648;2022-11-23T00:09:22;7.43;;;1.92;;
29240;SDS011;16268;49.880;8.648;2022-11-23T00:11:47;11.45;;;2.38;;
29240;SDS011;16268;49.880;8.648;2022-11-23T00:14:13;7.35;;;2.15;;
29240;SDS011;16268;49.880;8.648;2022-11-23T00:16:38;8.25;;;2.00;;
29240;SDS011;16268;49.880;8.648;2022-11-23T00:19:04;8.98;;;1.98;;
29240;SDS011;16268;49.880;8.648;2022-11-23T00:21:30;12.88;;;2.72;;
29240;SDS011;16268;49.880;8.648;2022-11-23T00:23:57;7.13;;;2.17;;
29240;SDS011;16268;49.880;8.648;2022-11-23T00:26:22;8.65;;;2.55;;
29240;SDS011;16268;49.880;8.648;2022-11-23T00:28:48;9.00;;;2.05;;
29240;SDS011;16268;49.880;8.648;2022-11-23T00:31:15;10.25;;;2.15;;
29240;SDS011;16268;49.880;8.648;2022-11-23T00:33:42;8.98;;;2.13;;
29240;SDS011;16268;49.880;8.648;2022-11-23T00:36:19;8.82;;;1.92;;
29240;SDS011;16268;49.880;8.648;2022-11-23T00:38:46;12.00;;;2.22;;
29240;SDS011;16268;49.880;8.648;2022-11-23T00:41:13;8.68;;;2.70;;
29240;SDS011;16268;49.880;8.648;2022-11-23T00:43:41;9.27;;;2.13;;
29240;SDS011;16268;49.880;8.648;2022-11-23T00:48:32;10.07;;;2.58;;
29240;SDS011;16268;49.880;8.648;2022-11-23T00:50:59;12.52;;;2.38;;
29240;SDS011;16268;49.880;8.648;2022-11-23T00:53:26;7.65;;;2.33;;
29240;SDS011;16268;49.880;8.648;2022-11-23T00:55:52;6.80;;;2.05;;
29240;SDS011;16268;49.880;8.648;2022-11-23T00:58:19;7.03;;;2.17;;
29240;SDS011;16268;49.880;8.648;2022-11-23T01:00:45;11.20;;;2.30;;
29240;SDS011;16268;49.880;8.648;2022-11-23T01:03:11;6.45;;;2.45;;
29240;SDS011;16268;49.880;8.648;2022-11-23T01:05:37;8.85;;;2.33;;
29240;SDS011;16268;49.880;8.648;2022-11-23T01:08:03;8.82;;;2.58;;
29240;SDS011;16268;49.880;8.648;2022-11-23T01:10:30;9.57;;;1.80;;
29240;SDS011;16268;49.880;8.648;2022-11-23T01:12:56;9.63;;;2.22;;
29240;SDS011;16268;49.880;8.648;2022-11-23T01:15:22;11.43;;;2.47;;
29240;SDS011;16268;49.880;8.648;2022-11-23T01:17:48;11.55;;;2.42;;
29240;SDS011;16268;49.880;8.648;2022-11-23T01:20:13;9.95;;;2.35;;
29240;SDS011;16268;49.880;8.648;2022-11-23T01:22:39;7.68;;;2.10;;
29240;SDS011;16268;49.880;8.648;2022-11-23T01:25:05;8.63;;;2.25;;
29240;SDS011;16268;49.880;8.648;2022-11-23T01:27:31;6.95;;;2.13;;
29240;SDS011;16268;49.880;8.648;2022-11-23T01:29:56;7.97;;;2.17;;
29240;SDS011;16268;49.880;8.648;2022-11-23T01:32:22;9.68;;;2.20;;
29240;SDS011;16268;49.880;8.648;2022-11-23T01:34:48;11.30;;;2.33;;
29240;SDS011;16268;49.880;8.648;2022-11-23T01:37:13;9.00;;;2.10;;
29240;SDS011;16268;49.880;8.648;2022-11-23T01:39:39;9.15;;;1.80;;
29240;SDS011;16268;49.880;8.648;2022-11-23T01:42:04;8.30;;;1.88;;
29240;SDS011;16268;49.880;8.648;2022-11-23T01:44:33;9.75;;;2.10;;
29240;SDS011;16268;49.880;8.648;2022-11-23T01:47:01;7.95;;;1.92;;
29240;SDS011;16268;49.880;8.648;2022-11-23T01:49:38;7.57;;;2.00;;
29240;SDS011;16268;49.880;8.648;2022-11-23T01:52:14;8.50;;;2.30;;
29240;SDS011;16268;49.880;8.648;2022-11-23T01:54:45;8.90;;;2.28;;
29240;SDS011;16268;49.880;8.648;2022-11-23T01:57:21;11.88;;;2.30;;
29240;SDS011;16268;49.880;8.648;2022-11-23T01:59:51;7.22;;;1.75;;
29240;SDS011;16268;49.880;8.648;2022-11-23T02:02:18;8.88;;;2.33;;
29240;SDS011;16268;49.880;8.648;2022-11-23T02:04:45;8.38;;;2.10;;
29240;SDS011;16268;49.880;8.648;2022-11-23T02:07:12;8.20;;;1.60;;
29240;SDS011;16268;49.880;8.648;2022-11-23T02:09:40;8.75;;;1.88;;
29240;SDS011;16268;49.880;8.648;2022-11-23T02:12:10;8.90;;;1.98;;
29240;SDS011;16268;49.880;8.648;2022-11-23T02:14:37;7.60;;;1.92;;
29240;SDS011;16268;49.880;8.648;2022-11-23T02:17:05;8.50;;;2.05;;
29240;SDS011;16268;49.880;8.648;2022-11-23T02:22:13;9.55;;;2.15;;
29240;SDS011;16268;49.880;8.648;2022-11-23T02:24:48;12.07;;;2.08;;
29240;SDS011;16268;49.880;8.648;2022-11-23T02:27:17;9.25;;;1.95;;
29240;SDS011;16268;49.880;8.648;2022-11-23T02:29:43;7.80;;;2.13;;
29240;SDS011;16268;49.880;8.648;2022-11-23T02:32:10;7.47;;;1.92;;
29240;SDS011;16268;49.880;8.648;2022-11-23T02:34:36;8.75;;;2.17;;
29240;SDS011;16268;49.880;8.648;2022-11-23T02:37:02;7.60;;;1.88;;
29240;SDS011;16268;49.880;8.648;2022-11-23T02:39:29;10.32;;;2.10;;
29240;SDS011;16268;49.880;8.648;2022-11-23T02:41:58;8.30;;;2.05;;
29240;SDS011;16268;49.880;8.648;2022-11-23T02:44:38;8.45;;;2.38;;
29240;SDS011;16268;49.880;8.648;2022-11-23T02:47:10;6.78;;;1.80;;
29240;SDS011;16268;49.880;8.648;2022-11-23T02:49:36;10.70;;;2.40;;
29240;SDS011;16268;49.880;8.648;2022-11-23T02:52:03;9.73;;;2.22;;
29240;SDS011;16268;49.880;8.648;2022-11-23T02:54:30;8.73;;;2.13;;
29240;SDS011;16268;49.880;8.648;2022-11-23T02:56:56;7.60;;;2.15;;
29240;SDS011;16268;49.880;8.648;2022-11-23T02:59:21;8.18;;;2.08;;
29240;SDS011;16268;49.880;8.648;2022-11-23T03:01:47;10.35;;;2.35;;
29240;SDS011;16268;49.880;8.648;2022-11-23T03:04:13;9.98;;;2.17;;
29240;SDS011;16268;49.880;8.648;2022-11-23T03:06:39;11.55;;;2.30;;
29240;SDS011;16268;49.880;8.648;2022-11-23T03:09:05;9.10;;;2.42;;
29240;SDS011;16268;49.880;8.648;2022-11-23T03:11:31;7.47;;;1.77;;
29240;SDS011;16268;49.880;8.648;2022-11-23T03:13:57;8.43;;;2.25;;
29240;SDS011;16268;49.880;8.648;2022-11-23T03:16:23;11.38;;;2.15;;
29240;SDS011;16268;49.880;8.648;2022-11-23T03:18:49;11.13;;;2.42;;
29240;SDS011;16268;49.880;8.648;2022-11-23T03:21:15;7.70;;;1.83;;
29240;SDS011;16268;49.880;8.648;2022-11-23T03:23:41;7.15;;;2.00;;
29240;SDS011;16268;49.880;8.648;2022-11-23T03:26:06;8.95;;;2.20;;
29240;SDS011;16268;49.880;8.648;2022-11-23T03:28:32;6.13;;;1.73;;
29240;SDS011;16268;49.880;8.648;2022-11-23T03:30:57;8.88;;;1.95;;
29240;SDS011;16268;49.880;8.648;2022-11-23T03:33:23;8.15;;;2.10;;
29240;SDS011;16268;49.880;8.648;2022-11-23T03:35:49;8.05;;;2.30;;
29240;SDS011;16268;49.880;8.648;2022-11-23T03:38:14;9.98;;;2.20;;
29240;SDS011;16268;49.880;8.648;2022-11-23T03:40:40;8.65;;;2.10;;
29240;SDS011;16268;49.880;8.648;2022-11-23T03:43:07;7.60;;;2.05;;
29240;SDS011;16268;49.880;8.648;2022-11-23T03:45:35;8.68;;;2.08;;
29240;SDS011;16268;49.880;8.648;2022-11-23T03:48:01;13.02;;;2.30;;
29240;SDS011;16268;49.880;8.648;2022-11-23T03:50:27;5.38;;;1.75;;
29240;SDS011;16268;49.880;8.648;2022-11-23T03:52:53;11.38;;;2.30;;
29240;SDS011;16268;49.880;8.648;2022-11-23T03:55:20;7.78;;;1.90;;
29240;SDS011;16268;49.880;8.648;2022-11-23T03:57:49;9.07;;;2.15;;
29240;SDS011;16268;49.880;8.648;2022-11-23T04:00:14;7.88;;;1.90;;
29240;SDS011;16268;49.880;8.648;2022-11-23T04:02:41;14.55;;;2.40;;
29240;SDS011;16268;49.880;8.648;2022-11-23T04:05:07;12.98;;;2.78;;
29240;SDS011;16268;49.880;8.648;2022-11-23T04:07:35;11.00;;;2.40;;
29240;SDS011;16268;49.880;8.648;2022-11-23T04:10:01;10.27;;;2.00;;
29240;SDS011;16268;49.880;8.648;2022-11-23T04:12:27;7.97;;;1.95;;
29240;SDS011;16268;49.880;8.648;2022-11-23T04:14:52;10.27;;;2.08;;
29240;SDS011;16268;49.880;8.648;2022-11-23T04:17:18;9.30;;;2.33;;
29240;SDS011;16268;49.880;8.648;2022-11-23T04:19:44;9.15;;;2.00;;
29240;SDS011;16268;49.880;8.648;2022-11-23T04:22:09;8.52;;;1.90;;
29240;SDS011;16268;49.880;8.648;2022-11-23T04:24:35;7.15;;;1.90;;
29240;SDS011;16268;49.880;8.648;2022-11-23T04:27:01;9.27;;;2.08;;
29240;SDS011;16268;49.880;8.648;2022-11-23T04:29:26;9.27;;;2.05;;
29240;SDS011;16268;49.880;8.648;2022-11-23T04:31:52;7.65;;;1.90;;
29240;SDS011;16268;49.880;8.648;2022-11-23T04:34:18;8.70;;;2.20;;
29240;SDS011;16268;49.880;8.648;2022-11-23T04:36:44;7.25;;;2.15;;
29240;SDS011;16268;49.880;8.648;2022-11-23T04:39:10;13.10;;;2.10;;
29240;SDS011;16268;49.880;8.648;2022-11-23T04:41:36;7.25;;;2.03;;
29240;SDS011;16268;49.880;8.648;2022-11-23T04:44:02;9.18;;;2.38;;
29240;SDS011;16268;49.880;8.648;2022-11-23T04:46:28;6.82;;;1.95;;
29240;SDS011;16268;49.880;8.648;2022-11-23T04:48:53;9.75;;;1.85;;
29240;SDS011;16268;49.880;8.648;2022-11-23T04:51:19;9.88;;;1.90;;
29240;SDS011;16268;49.880;8.648;2022-11-23T04:53:44;8.70;;;2.10;;
29240;SDS011;16268;49.880;8.648;2022-11-23T04:56:10;7.45;;;2.00;;
29240;SDS011;16268;49.880;8.648;2022-11-23T04:58:36;8.52;;;2.10;;
29240;SDS011;16268;49.880;8.648;2022-11-23T05:01:02;10.23;;;2.08;;
29240;SDS011;16268;49.880;8.648;2022-11-23T05:03:29;9.75;;;2.00;;
29240;SDS011;16268;49.880;8.648;2022-11-23T05:05:58;10.20;;;2.15;;
29240;SDS011;16268;49.880;8.648;2022-11-23T05:08:24;5.50;;;1.85;;
29240;SDS011;16268;49.880;8.648;2022-11-23T05:10:50;11.35;;;2.08;;
29240;SDS011;16268;49.880;8.648;2022-11-23T05:13:15;10.57;;;2.38;;
29240;SDS011;16268;49.880;8.648;2022-11-23T05:15:41;10.77;;;2.20;;
29240;SDS011;16268;49.880;8.648;2022-11-23T05:18:06;8.02;;;2.30;;
29240;SDS011;16268;49.880;8.648;2022-11-23T05:20:34;8.32;;;1.77;;
29240;SDS011;16268;49.880;8.648;2022-11-23T05:23:00;10.18;;;2.05;;
29240;SDS011;16268;49.880;8.648;2022-11-23T05:25:25;8.43;;;1.98;;
29240;SDS011;16268;49.880;8.648;2022-11-23T05:27:51;10.45;;;2.22;;
29240;SDS011;16268;49.880;8.648;2022-11-23T05:30:17;8.95;;;2.13;;
29240;SDS011;16268;49.880;8.648;2022-11-23T05:32:43;6.38;;;1.80;;
29240;SDS011;16268;49.880;8.648;2022-11-23T05:35:09;7.00;;;2.30;;
29240;SDS011;16268;49.880;8.648;2022-11-23T05:37:35;9.13;;;2.00;;
29240;SDS011;16268;49.880;8.648;2022-11-23T05:40:01;8.98;;;1.88;;
29240;SDS011;16268;49.880;8.648;2022-11-23T05:42:27;6.65;;;1.77;;
29240;SDS011;16268;49.880;8.648;2022-11-23T05:44:53;10.70;;;2.17;;
29240;SDS011;16268;49.880;8.648;2022-11-23T05:47:18;7.18;;;2.08;;
29240;SDS011;16268;49.880;8.648;2022-11-23T05:49:44;8.73;;;2.15;;
29240;SDS011;16268;49.880;8.648;2022-11-23T05:52:09;12.00;;;2.40;;
29240;SDS011;16268;49.880;8.648;2022-11-23T05:54:35;7.70;;;2.10;;
29240;SDS011;16268;49.880;8.648;2022-11-23T05:57:00;7.53;;;2.33;;
29240;SDS011;16268;49.880;8.648;2022-11-23T05:59:26;8.18;;;2.35;;
29240;SDS011;16268;49.880;8.648;2022-11-23T06:01:51;9.95;;;2.00;;
29240;SDS011;16268;49.880;8.648;2022-11-23T06:04:17;11.38;;;2.92;;
29240;SDS011;16268;49.880;8.648;2022-11-23T06:06:43;7.72;;;2.15;;
29240;SDS011;16268;49.880;8.648;2022-11-23T06:09:08;8.55;;;1.80;;
29240;SDS011;16268;49.880;8.648;2022-11-23T06:11:34;11.40;;;2.03;;
29240;SDS011;16268;49.880;8.648;2022-11-23T06:13:59;13.40;;;2.30;;
29240;SDS011;16268;49.880;8.648;2022-11-23T06:16:25;8.48;;;1.90;;
29240;SDS011;16268;49.880;8.648;2022-11-23T06:18:51;8.75;;;2.05;;
29240;SDS011;16268;49.880;8.648;2022-11-23T06:21:16;9.32;;;2.40;;
29240;SDS011;16268;49.880;8.648;2022-11-23T06:23:42;7.38;;;2.00;;
29240;SDS011;16268;49.880;8.648;2022-11-23T06:26:08;7.95;;;1.75;;
29240;SDS011;16268;49.880;8.648;2022-11-23T06:28:33;8.07;;;2.20;;
29240;SDS011;16268;49.880;8.648;2022-11-23T06:31:01;6.18;;;2.17;;
29240;SDS011;16268;49.880;8.648;2022-11-23T06:33:28;9.27;;;2.30;;
29240;SDS011;16268;49.880;8.648;2022-11-23T06:35:54;10.23;;;2.20;;
29240;SDS011;16268;49.880;8.648;2022-11-23T06:38:22;6.82;;;1.88;;
29240;SDS011;16268;49.880;8.648;2022-11-23T06:40:48;9.68;;;2.40;;
29240;SDS011;16268;49.880;8.648;2022-11-23T06:43:13;10.23;;;2.60;;
29240;SDS011;16268;49.880;8.648;2022-11-23T06:45:39;10.93;;;2.03;;
29240;SDS011;16268;49.880;8.648;2022-11-23T06:48:04;14.65;;;2.40;;
29240;SDS011;16268;49.880;8.648;2022-11-23T06:50:30;8.23;;;2.40;;
29240;SDS011;16268;49.880;8.648;2022-11-23T06:52:56;10.43;;;2.22;;
29240;SDS011;16268;49.880;8.648;2022-11-23T06:55:22;10.60;;;2.22;;
29240;SDS011;16268;49.880;8.648;2022-11-23T06:57:49;8.65;;;2.40;;
29240;SDS011;16268;49.880;8.648;2022-11-23T07:00:14;7.82;;;2.17;;
29240;SDS011;16268;49.880;8.648;2022-11-23T07:02:41;7.75;;;2.08;;
29240;SDS011;16268;49.880;8.648;2022-11-23T07:05:06;8.63;;;2.03;;
29240;SDS011;16268;49.880;8.648;2022-11-23T07:07:32;9.43;;;2.25;;
29240;SDS011;16268;49.880;8.648;2022-11-23T07:09:58;10.82;;;2.25;;
29240;SDS011;16268;49.880;8.648;2022-11-23T07:12:24;8.15;;;1.90;;
29240;SDS011;16268;49.880;8.648;2022-11-23T07:14:50;6.10;;;1.55;;
29240;SDS011;16268;49.880;8.648;2022-11-23T07:17:15;8.13;;;2.00;;
29240;SDS011;16268;49.880;8.648;2022-11-23T07:19:41;8.15;;;2.22;;
29240;SDS011;16268;49.880;8.648;2022-11-23T07:22:06;6.03;;;1.75;;
29240;SDS011;16268;49.880;8.648;2022-11-23T07:24:32;7.22;;;1.85;;
29240;SDS011;16268;49.880;8.648;2022-11-23T07:26:57;7.90;;;2.10;;
29240;SDS011;16268;49.880;8.648;2022-11-23T07:29:23;10.18;;;2.35;;
29240;SDS011;16268;49.880;8.648;2022-11-23T07:31:48;8.05;;;2.15;;
29240;SDS011;16268;49.880;8.648;2022-11-23T07:34:14;6.47;;;1.80;;
29240;SDS011;16268;49.880;8.648;2022-11-23T07:36:40;5.60;;;1.88;;
29240;SDS011;16268;49.880;8.648;2022-11-23T07:39:05;7.07;;;2.22;;
29240;SDS011;16268;49.880;8.648;2022-11-23T07:41:31;8.48;;;2.30;;
29240;SDS011;16268;49.880;8.648;2022-11-23T07:43:57;8.45;;;2.08;;
29240;SDS011;16268;49.880;8.648;2022-11-23T07:46:22;5.88;;;1.80;;
29240;SDS011;16268;49.880;8.648;2022-11-23T07:48:48;9.40;;;2.22;;
29240;SDS011;16268;49.880;8.648;2022-11-23T07:51:14;10.85;;;2.13;;
29240;SDS011;16268;49.880;8.648;2022-11-23T07:53:40;10.55;;;2.30;;
29240;SDS011;16268;49.880;8.648;2022-11-23T07:56:06;9.45;;;1.77;;
29240;SDS011;16268;49.880;8.648;2022-11-23T07:58:31;10.63;;;2.15;;
29240;SDS011;16268;49.880;8.648;2022-11-23T08:00:57;7.03;;;2.17;;
29240;SDS011;16268;49.880;8.648;2022-11-23T08:03:23;7.40;;;2.28;;
29240;SDS011;16268;49.880;8.648;2022-11-23T08:05:48;8.00;;;2.03;;
29240;SDS011;16268;49.880;8.648;2022-11-23T08:08:14;6.75;;;1.60;;
29240;SDS011;16268;49.880;8.648;2022-11-23T08:10:40;10.90;;;2.08;;
29240;SDS011;16268;49.880;8.648;2022-11-23T08:13:06;8.68;;;1.98;;
29240;SDS011;16268;49.880;8.648;2022-11-23T08:15:31;7.75;;;2.15;;
29240;SDS011;16268;49.880;8.648;2022-11-23T08:17:57;6.78;;;2.10;;
29240;SDS011;16268;49.880;8.648;2022-11-23T08:20:25;11.00;;;2.45;;
29240;SDS011;16268;49.880;8.648;2022-11-23T08:22:52;7.43;;;2.20;;
29240;SDS011;16268;49.880;8.648;2022-11-23T08:25:21;7.63;;;1.92;;
29240;SDS011;16268;49.880;8.648;2022-11-23T08:27:53;7.55;;;1.75;;
29240;SDS011;16268;49.880;8.648;2022-11-23T08:30:22;10.40;;;2.40;;
29240;SDS011;16268;49.880;8.648;2022-11-23T08:32:48;7.40;;;2.30;;
29240;SDS011;16268;49.880;8.648;2022-11-23T08:35:13;8.10;;;2.10;;
29240;SDS011;16268;49.880;8.648;2022-11-23T08:37:39;8.77;;;1.83;;
29240;SDS011;16268;49.880;8.648;2022-11-23T08:40:05;8.18;;;1.83;;
29240;SDS011;16268;49.880;8.648;2022-11-23T08:42:31;10.25;;;2.00;;
29240;SDS011;16268;49.880;8.648;2022-11-23T08:44:56;9.90;;;2.50;;
29240;SDS011;16268;49.880;8.648;2022-11-23T08:47:24;9.10;;;2.42;;
29240;SDS011;16268;49.880;8.648;2022-11-23T08:49:50;8.05;;;1.98;;
29240;SDS011;16268;49.880;8.648;2022-11-23T08:52:16;8.68;;;1.80;;
29240;SDS011;16268;49.880;8.648;2022-11-23T08:54:41;6.65;;;1.65;;
29240;SDS011;16268;49.880;8.648;2022-11-23T08:57:07;9.18;;;2.08;;
29240;SDS011;16268;49.880;8.648;2022-11-23T08:59:32;10.35;;;2.22;;
29240;SDS011;16268;49.880;8.648;2022-11-23T09:01:58;10.23;;;2.25;;
29240;SDS011;16268;49.880;8.648;2022-11-23T09:04:23;8.95;;;2.30;;
29240;SDS011;16268;49.880;8.648;2022-11-23T09:06:51;8.70;;;2.25;;
29240;SDS011;16268;49.880;8.648;2022-11-23T09:09:17;7.72;;;1.80;;
29240;SDS011;16268;49.880;8.648;2022-11-23T09:11:43;7.47;;;2.20;;
29240;SDS011;16268;49.880;8.648;2022-11-23T09:14:08;6.53;;;1.88;;
29240;SDS011;16268;49.880;8.648;2022-11-23T09:16:34;6.47;;;1.77;;
29240;SDS011;16268;49.880;8.648;2022-11-23T09:18:59;7.80;;;2.30;;
29240;SDS011;16268;49.880;8.648;2022-11-23T09:21:25;7.03;;;2.05;;
29240;SDS011;16268;49.880;8.648;2022-11-23T09:23:54;5.32;;;1.73;;
29240;SDS011;16268;49.880;8.648;2022-11-23T09:26:21;7.57;;;1.98;;
29240;SDS011;16268;49.880;8.648;2022-11-23T09:28:46;8.07;;;2.05;;
29240;SDS011;16268;49.880;8.648;2022-11-23T09:31:12;9.88;;;2.03;;
29240;SDS011;16268;49.880;8.648;2022-11-23T09:33:37;6.70;;;1.85;;
29240;SDS011;16268;49.880;8.648;2022-11-23T09:36:03;7.70;;;1.67;;
29240;SDS011;16268;49.880;8.648;2022-11-23T09:38:29;11.05;;;2.50;;
29240;SDS011;16268;49.880;8.648;2022-11-23T09:51:32;7.22;;;2.15;;
29240;SDS011;16268;49.880;8.648;2022-11-23T09:54:03;10.88;;;2.00;;
29240;SDS011;16268;49.880;8.648;2022-11-23T09:56:35;8.68;;;2.20;;
29240;SDS011;16268;49.880;8.648;2022-11-23T09:59:11;6.47;;;2.08;;
29240;SDS011;16268;49.880;8.648;2022-11-23T10:01:47;6.55;;;2.28;;
29240;SDS011;16268;49.880;8.648;2022-11-23T10:04:14;7.35;;;1.83;;
29240;SDS011;16268;49.880;8.648;2022-11-23T10:06:42;8.68;;;2.05;;
29240;SDS011;16268;49.880;8.648;2022-11-23T10:14:42;7.85;;;1.98;;
29240;SDS011;16268;49.880;8.648;2022-11-23T10:22:45;13.30;;;2.35;;
29240;SDS011;16268;49.880;8.648;2022-11-23T10:25:16;9.38;;;2.08;;
29240;SDS011;16268;49.880;8.648;2022-11-23T10:27:44;7.50;;;2.20;;
29240;SDS011;16268;49.880;8.648;2022-11-23T10:30:12;7.03;;;1.90;;
29240;SDS011;16268;49.880;8.648;2022-11-23T10:35:27;7.38;;;2.17;;
29240;SDS011;16268;49.880;8.648;2022-11-23T10:38:14;8.30;;;1.95;;
29240;SDS011;16268;49.880;8.648;2022-11-23T10:40:42;7.97;;;1.65;;
29240;SDS011;16268;49.880;8.648;2022-11-23T10:43:17;7.65;;;1.85;;
29240;SDS011;16268;49.880;8.648;2022-11-23T10:45:48;8.35;;;2.00;;
29240;SDS011;16268;49.880;8.648;2022-11-23T10:48:32;7.97;;;1.80;;
29240;SDS011;16268;49.880;8.648;2022-11-23T10:51:14;12.02;;;2.20;;
29240;SDS011;16268;49.880;8.648;2022-11-23T10:53:49;10.45;;;2.08;;
29240;SDS011;16268;49.880;8.648;2022-11-23T10:56:27;7.63;;;1.90;;
29240;SDS011;16268;49.880;8.648;2022-11-23T10:58:53;7.60;;;1.80;;
29240;SDS011;16268;49.880;8.648;2022-11-23T11:01:23;7.85;;;1.83;;
29240;SDS011;16268;49.880;8.648;2022-11-23T11:03:51;7.00;;;1.95;;
29240;SDS011;16268;49.880;8.648;2022-11-23T11:08:59;10.10;;;1.98;;
29240;SDS011;16268;49.880;8.648;2022-11-23T11:11:31;10.13;;;2.08;;
29240;SDS011;16268;49.880;8.648;2022-11-23T11:16:36;5.95;;;1.83;;
29240;SDS011;16268;49.880;8.648;2022-11-23T11:21:59;8.07;;;2.20;;
29240;SDS011;16268;49.880;8.648;2022-11-23T11:27:23;8.07;;;2.17;;
29240;SDS011;16268;49.880;8.648;2022-11-23T11:29:51;10.30;;;1.90;;
29240;SDS011;16268;49.880;8.648;2022-11-23T11:32:25;7.95;;;1.85;;
29240;SDS011;16268;49.880;8.648;2022-11-23T11:35:12;8.05;;;1.63;;
29240;SDS011;16268;49.880;8.648;2022-11-23T11:37:50;7.05;;;1.73;;
29240;SDS011;16268;49.880;8.648;2022-11-23T11:45:46;7.63;;;1.80;;
29240;SDS011;16268;49.880;8.648;2022-11-23T11:48:16;5.40;;;1.67;;
29240;SDS011;16268;49.880;8.648;2022-11-23T11:51:05;6.10;;;1.80;;
29240;SDS011;16268;49.880;8.648;2022-11-23T11:56:26;5.93;;;1.60;;
29240;SDS011;16268;49.880;8.648;2022-11-23T11:58:55;8.55;;;1.60;;
29240;SDS011;16268;49.880;8.648;2022-11-23T12:04:19;5.75;;;1.70;;
29240;SDS011;16268;49.880;8.648;2022-11-23T12:10:03;6.10;;;1.60;;
29240;SDS011;16268;49.880;8.648;2022-11-23T12:12:34;6.53;;;1.77;;
29240;SDS011;16268;49.880;8.648;2022-11-23T12:15:00;6.75;;;1.80;;
29240;SDS011;16268;49.880;8.648;2022-11-23T12:20:38;7.72;;;1.90;;
29240;SDS011;16268;49.880;8.648;2022-11-23T12:23:22;8.00;;;1.73;;
29240;SDS011;16268;49.880;8.648;2022-11-23T12:28:44;10.63;;;1.83;;
29240;SDS011;16268;49.880;8.648;2022-11-23T12:42:43;7.55;;;1.77;;
29240;SDS011;16268;49.880;8.648;2022-11-23T12:45:18;7.40;;;1.45;;
29240;SDS011;16268;49.880;8.648;2022-11-23T12:47:58;7.03;;;1.50;;
29240;SDS011;16268;49.880;8.648;2022-11-23T12:50:54;7.38;;;1.52;;
29240;SDS011;16268;49.880;8.648;2022-11-23T12:58:31;5.05;;;1.25;;
29240;SDS011;16268;49.880;8.648;2022-11-23T13:19:29;8.32;;;1.45;;
29240;SDS011;16268;49.880;8.648;2022-11-23T13:21:38;7.03;;;1.70;;
29240;SDS011;16268;49.880;8.648;2022-11-23T13:24:39;5.32;;;1.27;;
29240;SDS011;16268;49.880;8.648;2022-11-23T13:40:26;5.45;;;1.20;;
29240;SDS011;16268;49.880;8.648;2022-11-23T13:42:57;9.60;;;1.50;;
29240;SDS011;16268;49.880;8.648;2022-11-23T13:45:29;5.68;;;1.50;;
29240;SDS011;16268;49.880;8.648;2022-11-23T13:48:35;7.53;;;1.75;;
29240;SDS011;16268;49.880;8.648;2022-11-23T13:50:55;6.65;;;1.50;;
29240;SDS011;16268;49.880;8.648;2022-11-23T13:53:27;6.93;;;1.90;;
29240;SDS011;16268;49.880;8.648;2022-11-23T13:59:19;6.60;;;1.38;;
29240;SDS011;16268;49.880;8.648;2022-11-23T14:07:14;8.35;;;1.95;;
29240;SDS011;16268;49.880;8.648;2022-11-23T14:09:50;6.93;;;1.80;;
29240;SDS011;16268;49.880;8.648;2022-11-23T14:15:12;7.10;;;1.73;;
29240;SDS011;16268;49.880;8.648;2022-11-23T14:17:50;6.65;;;1.50;;
29240;SDS011;16268;49.880;8.648;2022-11-23T14:32:01;6.97;;;1.48;;
29240;SDS011;16268;49.880;8.648;2022-11-23T14:34:54;7.15;;;1.63;;
29240;SDS011;16268;49.880;8.648;2022-11-23T14:37:32;6.78;;;1.35;;
29240;SDS011;16268;49.880;8.648;2022-11-23T14:40:22;7.93;;;1.75;;
29240;SDS011;16268;49.880;8.648;2022-11-23T14:42:55;8.38;;;1.90;;
29240;SDS011;16268;49.880;8.648;2022-11-23T14:45:22;7.47;;;1.70;;
29240;SDS011;16268;49.880;8.648;2022-11-23T14:47:52;9.02;;;1.60;;
29240;SDS011;16268;49.880;8.648;2022-11-23T14:50:25;6.65;;;1.50;;
29240;SDS011;16268;49.880;8.648;2022-11-23T14:52:53;6.70;;;1.52;;
29240;SDS011;16268;49.880;8.648;2022-11-23T14:55:22;6.07;;;1.65;;
29240;SDS011;16268;49.880;8.648;2022-11-23T14:57:51;11.55;;;1.88;;
29240;SDS011;16268;49.880;8.648;2022-11-23T15:00:30;5.15;;;1.90;;
29240;SDS011;16268;49.880;8.648;2022-11-23T15:03:05;7.75;;;1.90;;
29240;SDS011;16268;49.880;8.648;2022-11-23T15:05:49;8.45;;;1.90;;
29240;SDS011;16268;49.880;8.648;2022-11-23T15:08:24;7.25;;;1.67;;
29240;SDS011;16268;49.880;8.648;2022-11-23T15:11:02;6.85;;;1.75;;
29240;SDS011;16268;49.880;8.648;2022-11-23T15:16:16;7.22;;;1.92;;
29240;SDS011;16268;49.880;8.648;2022-11-23T15:18:43;9.55;;;2.03;;
29240;SDS011;16268;49.880;8.648;2022-11-23T15:23:35;7.75;;;1.70;;
29240;SDS011;16268;49.880;8.648;2022-11-23T15:26:10;6.75;;;1.85;;
29240;SDS011;16268;49.880;8.648;2022-11-23T15:28:38;10.93;;;1.80;;
29240;SDS011;16268;49.880;8.648;2022-11-23T15:33:57;7.22;;;1.85;;
29240;SDS011;16268;49.880;8.648;2022-11-23T15:36:27;6.32;;;1.77;;
29240;SDS011;16268;49.880;8.648;2022-11-23T15:38:55;7.13;;;1.80;;
29240;SDS011;16268;49.880;8.648;2022-11-23T15:41:22;6.93;;;2.08;;
29240;SDS011;16268;49.880;8.648;2022-11-23T15:43:53;7.35;;;1.90;;
29240;SDS011;16268;49.880;8.648;2022-11-23T15:46:21;6.63;;;1.85;;
29240;SDS011;16268;49.880;8.648;2022-11-23T15:48:49;5.85;;;1.83;;
29240;SDS011;16268;49.880;8.648;2022-11-23T15:51:24;7.53;;;2.17;;
29240;SDS011;16268;49.880;8.648;2022-11-23T15:53:57;8.80;;;2.20;;
29240;SDS011;16268;49.880;8.648;2022-11-23T15:56:33;11.40;;;2.58;;
29240;SDS011;16268;49.880;8.648;2022-11-23T15:59:02;10.07;;;2.60;;
29240;SDS011;16268;49.880;8.648;2022-11-23T16:01:41;7.05;;;2.20;;
29240;SDS011;16268;49.880;8.648;2022-11-23T16:04:27;8.63;;;2.60;;
29240;SDS011;16268;49.880;8.648;2022-11-23T16:07:22;6.97;;;1.90;;
29240;SDS011;16268;49.880;8.648;2022-11-23T16:09:50;7.88;;;2.47;;
29240;SDS011;16268;49.880;8.648;2022-11-23T16:12:32;12.48;;;3.15;;
29240;SDS011;16268;49.880;8.648;2022-11-23T16:18:02;9.40;;;2.30;;
29240;SDS011;16268;49.880;8.648;2022-11-23T16:20:30;12.95;;;2.40;;
29240;SDS011;16268;49.880;8.648;2022-11-23T16:22:56;7.30;;;2.28;;
29240;SDS011;16268;49.880;8.648;2022-11-23T16:27:59;8.88;;;2.30;;
29240;SDS011;16268;49.880;8.648;2022-11-23T16:30:25;6.25;;;2.30;;
29240;SDS011;16268;49.880;8.648;2022-11-23T16:33:05;9.20;;;2.35;;
29240;SDS011;16268;49.880;8.648;2022-11-23T16:35:37;8.35;;;2.22;;
29240;SDS011;16268;49.880;8.648;2022-11-23T16:38:02;13.05;;;2.22;;
29240;SDS011;16268;49.880;8.648;2022-11-23T16:40:29;6.45;;;2.65;;
29240;SDS011;16268;49.880;8.648;2022-11-23T16:42:55;8.57;;;2.40;;
29240;SDS011;16268;49.880;8.648;2022-11-23T16:45:21;10.10;;;2.65;;
29240;SDS011;16268;49.880;8.648;2022-11-23T16:47:57;8.63;;;2.90;;
29240;SDS011;16268;49.880;8.648;2022-11-23T16:50:28;10.30;;;3.17;;
29240;SDS011;16268;49.880;8.648;2022-11-23T16:52:55;8.45;;;3.10;;
29240;SDS011;16268;49.880;8.648;2022-11-23T16:55:21;10.55;;;3.17;;
29240;SDS011;16268;49.880;8.648;2022-11-23T16:57:47;10.75;;;3.47;;
29240;SDS011;16268;49.880;8.648;2022-11-23T17:00:14;10.40;;;3.45;;
29240;SDS011;16268;49.880;8.648;2022-11-23T17:02:45;10.88;;;3.80;;
29240;SDS011;16268;49.880;8.648;2022-11-23T17:05:17;13.88;;;4.60;;
29240;SDS011;16268;49.880;8.648;2022-11-23T17:07:43;11.85;;;4.25;;
29240;SDS011;16268;49.880;8.648;2022-11-23T17:10:10;8.65;;;3.25;;
29240;SDS011;16268;49.880;8.648;2022-11-23T17:12:36;11.27;;;3.83;;
29240;SDS011;16268;49.880;8.648;2022-11-23T17:15:03;9.93;;;2.53;;
29240;SDS011;16268;49.880;8.648;2022-11-23T17:17:30;9.25;;;2.70;;
29240;SDS011;16268;49.880;8.648;2022-11-23T17:19:56;6.50;;;2.50;;